createdAt,value
2022-09-11T00:02:33.739Z,65.95
2022-09-11T00:05:19.078Z,66.05
2022-09-11T00:08:04.371Z,66.02
2022-09-11T00:10:49.986Z,65.95
2022-09-11T00:13:38.033Z,66.05
2022-09-11T00:16:29.329Z,65.99
2022-09-11T00:19:18.848Z,65.91
2022-09-11T00:22:05.955Z,65.96
2022-09-11T00:24:51.112Z,65.78
2022-09-11T00:27:36.631Z,65.98
2022-09-11T00:30:22.854Z,66.03
2022-09-11T00:33:08.142Z,65.90
2022-09-11T00:36:06.044Z,66.01
2022-09-11T00:38:52.265Z,65.95
2022-09-11T00:41:40.067Z,65.96
2022-09-11T00:44:25.302Z,66.01
2022-09-11T00:47:16.143Z,65.99
2022-09-11T00:50:15.329Z,65.91
2022-09-11T00:53:06.570Z,66.14
2022-09-11T00:55:56.906Z,65.87
2022-09-11T00:58:46.716Z,65.87
2022-09-11T01:01:31.937Z,66.02
2022-09-11T01:04:17.750Z,66.08
2022-09-11T01:07:04.310Z,65.82
2022-09-11T01:09:51.227Z,66.06
2022-09-11T01:12:56.485Z,65.92
2022-09-11T01:15:52.115Z,65.86
2022-09-11T01:18:49.975Z,65.94
2022-09-11T01:21:56.927Z,65.90
2022-09-11T01:25:09.092Z,65.92
2022-09-11T01:28:00.867Z,65.88
2022-09-11T01:30:54.838Z,65.98
2022-09-11T01:33:46.163Z,66.04
2022-09-11T01:36:39.058Z,65.98
2022-09-11T01:39:32.932Z,65.89
2022-09-11T01:42:23.162Z,65.96
2022-09-11T01:45:12.131Z,65.91
2022-09-11T01:48:00.176Z,65.88
2022-09-11T01:50:48.141Z,65.98
2022-09-11T01:53:38.878Z,65.92
2022-09-11T01:56:29.788Z,65.99
2022-09-11T01:59:19.275Z,65.91
2022-09-11T02:02:07.830Z,65.97
2022-09-11T02:05:04.522Z,65.84
2022-09-11T02:08:03.093Z,65.88
2022-09-11T02:10:56.346Z,65.90
2022-09-11T02:14:05.082Z,65.88
2022-09-11T02:17:10.953Z,65.84
2022-09-11T02:20:00.600Z,66.03
2022-09-11T02:22:45.886Z,65.92
2022-09-11T02:25:31.231Z,66.06
2022-09-11T02:28:17.241Z,65.97
2022-09-11T02:31:03.486Z,65.97
2022-09-11T02:33:49.879Z,65.88
2022-09-11T02:37:04.703Z,65.99
2022-09-11T02:40:06.459Z,65.89
2022-09-11T02:43:19.078Z,65.81
2022-09-11T02:46:34.490Z,66.01
2022-09-11T02:49:31.935Z,65.93
2022-09-11T02:52:31.907Z,65.78
2022-09-11T02:55:25.344Z,65.86
2022-09-11T02:58:26.880Z,65.87
2022-09-11T03:01:13.526Z,65.99
2022-09-11T03:03:59.687Z,66.10
2022-09-11T03:06:45.407Z,65.85
2022-09-11T03:09:34.924Z,66.12
2022-09-11T03:12:27.271Z,65.77
2022-09-11T03:15:12.545Z,65.95
2022-09-11T03:18:00.227Z,65.78
2022-09-11T03:20:49.820Z,65.94
2022-09-11T03:23:35.352Z,66.17
2022-09-11T03:26:20.867Z,65.61
2022-09-11T03:29:08.479Z,65.91
2022-09-11T03:31:54.737Z,65.96
2022-09-11T03:34:40.268Z,66.26
2022-09-11T03:37:27.098Z,65.54
2022-09-11T03:40:14.277Z,65.84
2022-09-11T03:43:00.462Z,65.91
2022-09-11T03:45:51.971Z,65.84
2022-09-11T03:48:37.562Z,65.84
2022-09-11T03:51:22.693Z,66.20
2022-09-11T03:54:07.939Z,65.81
2022-09-11T03:56:53.679Z,65.82
2022-09-11T03:59:39.187Z,65.87
2022-09-11T04:02:24.671Z,65.91
2022-09-11T04:05:11.933Z,65.86
2022-09-11T04:07:59.371Z,65.78
2022-09-11T04:10:44.559Z,65.74
2022-09-11T04:13:32.226Z,65.77
2022-09-11T04:16:20.497Z,65.82
2022-09-11T04:19:11.591Z,65.57
2022-09-11T04:21:56.802Z,65.73
2022-09-11T04:24:42.123Z,65.75
2022-09-11T04:27:27.558Z,65.71
2022-09-11T04:30:13.851Z,65.84
2022-09-11T04:32:59.402Z,65.66
2022-09-11T04:35:44.522Z,65.73
2022-09-11T04:38:29.850Z,65.69
2022-09-11T04:41:16.333Z,65.66
2022-09-11T04:44:05.398Z,65.64
2022-09-11T04:46:54.213Z,65.74
2022-09-11T04:49:41.289Z,65.81
2022-09-11T04:52:29.568Z,65.55
2022-09-11T04:55:15.110Z,65.90
2022-09-11T04:58:00.529Z,65.95
2022-09-11T05:00:45.722Z,66.01
2022-09-11T05:03:32.946Z,66.26
2022-09-11T05:06:19.747Z,66.46
2022-09-11T05:09:08.813Z,66.69
2022-09-11T05:11:54.505Z,66.69
2022-09-11T05:14:42.120Z,66.88
2022-09-11T05:17:27.749Z,66.86
2022-09-11T05:20:13.335Z,67.06
2022-09-11T05:22:59.905Z,66.90
2022-09-11T05:25:45.598Z,67.28
2022-09-11T05:28:31.082Z,67.24
2022-09-11T05:31:18.611Z,67.32
2022-09-11T05:34:05.156Z,67.22
2022-09-11T05:36:52.138Z,67.38
2022-09-11T05:39:37.717Z,66.93
2022-09-11T05:42:24.878Z,66.78
2022-09-11T05:45:13.202Z,66.89
2022-09-11T05:47:58.492Z,67.02
2022-09-11T05:50:52.901Z,67.01
2022-09-11T05:53:39.226Z,67.38
2022-09-11T05:56:28.211Z,67.33
2022-09-11T05:59:18.200Z,67.09
2022-09-11T06:02:07.144Z,67.38
2022-09-11T06:05:01.434Z,66.76
2022-09-11T06:07:46.826Z,67.17
2022-09-11T06:10:32.780Z,66.42
2022-09-11T06:13:17.984Z,66.55
2022-09-11T06:16:09.043Z,66.82
2022-09-11T06:18:54.777Z,66.60
2022-09-11T06:21:40.883Z,66.46
2022-09-11T06:24:38.776Z,66.82
2022-09-11T06:27:25.113Z,66.59
2022-09-11T06:30:12.264Z,66.61
2022-09-11T06:32:59.093Z,66.50
2022-09-11T06:35:46.134Z,66.11
2022-09-11T06:38:32.242Z,66.12
2022-09-11T06:41:18.004Z,66.07
2022-09-11T06:44:03.752Z,66.90
2022-09-11T06:46:50.203Z,66.07
2022-09-11T06:49:36.436Z,66.57
2022-09-11T06:52:41.111Z,66.22
2022-09-11T06:55:33.356Z,65.91
2022-09-11T06:58:25.549Z,65.78
2022-09-11T07:01:14.975Z,65.68
2022-09-11T07:04:02.929Z,65.82
2022-09-11T07:06:51.260Z,65.76
2022-09-11T07:12:24.051Z,66.06
2022-09-11T07:15:10.996Z,66.24
2022-09-11T07:17:57.830Z,66.30
2022-09-11T07:20:43.084Z,66.15
2022-09-11T07:23:29.384Z,66.39
2022-09-11T07:26:16.756Z,66.36
2022-09-11T07:29:02.799Z,65.87
2022-09-11T07:31:48.137Z,65.66
2022-09-11T07:34:34.782Z,65.85
2022-09-11T07:37:23.882Z,65.91
2022-09-11T07:40:10.224Z,65.82
2022-09-11T07:42:55.540Z,65.83
2022-09-11T07:45:41.736Z,65.71
2022-09-11T07:48:26.823Z,66.12
2022-09-11T07:51:14.644Z,65.76
2022-09-11T07:54:01.274Z,65.44
2022-09-11T07:56:49.985Z,65.38
2022-09-11T07:59:35.837Z,65.41
2022-09-11T08:02:23.235Z,65.34
2022-09-11T08:05:08.579Z,65.16
2022-09-11T08:07:53.994Z,65.19
2022-09-11T08:10:40.927Z,65.03
2022-09-11T08:13:27.059Z,64.98
2022-09-11T08:16:12.893Z,65.00
2022-09-11T08:18:59.834Z,64.92
2022-09-11T08:21:47.830Z,64.88
2022-09-11T08:24:33.890Z,64.90
2022-09-11T08:27:21.677Z,64.90
2022-09-11T08:30:08.102Z,64.79
2022-09-11T08:32:55.273Z,64.84
2022-09-11T08:35:41.291Z,64.87
2022-09-11T08:38:28.147Z,64.80
2022-09-11T08:41:23.853Z,64.69
2022-09-11T08:44:09.543Z,64.57
2022-09-11T08:47:00.977Z,64.53
2022-09-11T08:49:58.521Z,64.98
2022-09-11T08:52:45.517Z,64.57
2022-09-11T08:55:38.516Z,64.38
2022-09-11T08:59:09.194Z,64.35
2022-09-11T09:02:31.969Z,64.29
2022-09-11T09:05:37.222Z,64.20
2022-09-11T09:08:22.553Z,64.29
2022-09-11T09:11:14.286Z,64.25
2022-09-11T09:14:15.345Z,64.33
2022-09-11T09:17:04.207Z,64.30
2022-09-11T09:20:01.793Z,64.10
2022-09-11T09:22:57.140Z,64.09
2022-09-11T09:25:45.898Z,64.07
2022-09-11T09:28:40.907Z,64.30
2022-09-11T09:31:30.609Z,64.12
2022-09-11T09:34:20.474Z,64.26
2022-09-11T09:37:11.448Z,64.33
2022-09-11T09:39:57.428Z,64.39
2022-09-11T09:43:12.301Z,64.57
2022-09-11T09:46:00.865Z,64.36
2022-09-11T09:48:47.495Z,64.58
2022-09-11T09:51:33.014Z,64.31
2022-09-11T09:54:22.917Z,64.28
2022-09-11T09:57:11.519Z,64.50
2022-09-11T10:00:14.449Z,64.38
2022-09-11T10:02:59.964Z,64.26
2022-09-11T10:05:46.455Z,64.42
2022-09-11T10:08:42.786Z,64.66
2022-09-11T10:11:29.318Z,64.49
2022-09-11T10:14:49.327Z,64.77
2022-09-11T10:17:30.311Z,64.74
2022-09-11T10:20:15.920Z,64.61
2022-09-11T10:23:23.464Z,64.91
2022-09-11T10:26:16.551Z,64.95
2022-09-11T10:29:08.514Z,64.93
2022-09-11T10:31:59.659Z,65.07
2022-09-11T10:34:45.554Z,65.21
2022-09-11T10:37:34.285Z,65.33
2022-09-11T10:40:22.848Z,65.53
2022-09-11T10:43:24.462Z,65.50
2022-09-11T10:46:19.018Z,65.52
2022-09-11T10:49:18.444Z,65.62
2022-09-11T10:52:22.111Z,65.63
2022-09-11T10:55:15.534Z,65.41
2022-09-11T10:58:21.303Z,65.73
2022-09-11T11:01:07.040Z,65.60
2022-09-11T11:03:52.643Z,65.59
2022-09-11T11:07:07.116Z,65.63
2022-09-11T11:10:24.956Z,65.87
2022-09-11T11:13:14.692Z,65.77
2022-09-11T11:16:05.668Z,65.98
2022-09-11T11:19:24.156Z,66.16
2022-09-11T11:22:24.857Z,65.91
2022-09-11T11:25:17.461Z,65.56
2022-09-11T11:28:26.890Z,65.90
2022-09-11T11:32:09.781Z,65.72
2022-09-11T11:35:12.424Z,65.44
2022-09-11T11:38:14.485Z,65.34
2022-09-11T11:41:12.236Z,65.54
2022-09-11T11:44:01.698Z,65.60
2022-09-11T11:46:52.432Z,65.78
2022-09-11T11:49:54.911Z,65.53
2022-09-11T11:52:54.175Z,65.38
2022-09-11T11:56:00.222Z,65.29
2022-09-11T11:59:10.167Z,65.70
2022-09-11T12:02:05.335Z,65.70
2022-09-11T12:05:10.250Z,65.61
2022-09-11T12:07:55.684Z,65.73
2022-09-11T12:10:56.406Z,65.55
2022-09-11T12:13:48.031Z,65.36
2022-09-11T12:16:35.149Z,65.11
2022-09-11T12:19:25.324Z,65.77
2022-09-11T12:22:12.839Z,65.76
2022-09-11T12:25:01.190Z,65.67
2022-09-11T12:27:46.647Z,65.63
2022-09-11T12:30:59.866Z,65.69
2022-09-11T12:33:46.629Z,66.21
2022-09-11T12:36:49.721Z,66.57
2022-09-11T12:39:53.332Z,66.89
2022-09-11T12:42:38.803Z,67.18
2022-09-11T12:45:37.094Z,67.21
2022-09-11T12:48:44.314Z,67.23
2022-09-11T12:51:35.237Z,67.51
2022-09-11T12:54:24.770Z,68.09
2022-09-11T12:57:35.406Z,67.77
2022-09-11T13:00:35.153Z,67.59
2022-09-11T13:03:24.127Z,67.68
2022-09-11T13:06:13.638Z,67.40
2022-09-11T13:09:01.645Z,67.44
2022-09-11T13:11:52.387Z,67.48
2022-09-11T13:14:49.121Z,67.38
2022-09-11T13:17:46.851Z,67.27
2022-09-11T13:20:32.453Z,67.41
2022-09-11T13:23:18.931Z,67.36
2022-09-11T13:26:08.167Z,67.08
2022-09-11T13:28:56.437Z,67.18
2022-09-11T13:31:43.102Z,67.12
2022-09-11T13:34:30.151Z,66.98
2022-09-11T13:37:31.281Z,66.74
2022-09-11T13:40:22.507Z,66.87
2022-09-11T13:43:10.191Z,66.93
2022-09-11T13:46:18.170Z,66.97
2022-09-11T13:49:20.481Z,67.00
2022-09-11T13:52:07.094Z,67.07
2022-09-11T13:54:55.297Z,66.86
2022-09-11T13:58:00.798Z,66.89
2022-09-11T14:00:48.695Z,66.84
2022-09-11T14:03:34.319Z,66.81
2022-09-11T14:06:20.825Z,66.33
2022-09-11T14:09:06.432Z,66.63
2022-09-11T14:11:52.715Z,67.10
2022-09-11T14:14:38.237Z,66.82
2022-09-11T14:17:24.034Z,66.50
2022-09-11T14:20:20.395Z,66.86
2022-09-11T14:23:06.911Z,67.45
2022-09-11T14:26:06.200Z,67.36
2022-09-11T14:29:00.248Z,67.29
2022-09-11T14:31:45.940Z,67.26
2022-09-11T14:34:31.438Z,67.35
2022-09-11T14:37:17.407Z,67.12
2022-09-11T14:40:07.145Z,66.68
2022-09-11T14:42:53.165Z,66.43
2022-09-11T14:45:38.537Z,66.38
2022-09-11T14:48:25.784Z,66.35
2022-09-11T14:51:13.606Z,66.43
2022-09-11T14:53:59.032Z,66.26
2022-09-11T14:56:44.820Z,65.38
2022-09-11T14:59:30.109Z,65.80
2022-09-11T15:02:18.996Z,65.86
2022-09-11T15:05:07.765Z,66.13
2022-09-11T15:07:53.153Z,65.77
2022-09-11T15:10:38.492Z,65.60
2022-09-11T15:13:23.825Z,65.26
2022-09-11T15:16:12.021Z,65.28
2022-09-11T15:18:58.316Z,65.95
2022-09-11T15:21:44.318Z,65.56
2022-09-11T15:24:30.197Z,65.65
2022-09-11T15:27:16.023Z,65.50
2022-09-11T15:30:01.313Z,65.92
2022-09-11T15:32:47.775Z,65.80
2022-09-11T15:35:33.343Z,65.80
2022-09-11T15:38:18.840Z,65.64
2022-09-11T15:41:04.200Z,65.20
2022-09-11T15:43:50.602Z,64.88
2022-09-11T15:46:36.012Z,65.26
2022-09-11T15:49:22.721Z,64.84
2022-09-11T15:52:08.783Z,65.04
2022-09-11T15:54:54.387Z,64.91
2022-09-11T15:57:39.508Z,64.99
2022-09-11T16:00:24.825Z,65.13
2022-09-11T16:03:11.940Z,65.18
2022-09-11T16:05:57.660Z,65.10
2022-09-11T16:08:43.502Z,64.97
2022-09-11T16:11:29.797Z,64.97
2022-09-11T16:14:21.126Z,65.29
2022-09-11T16:17:07.678Z,65.23
2022-09-11T16:19:53.286Z,65.23
2022-09-11T16:22:38.546Z,65.04
2022-09-11T16:25:23.899Z,65.29
2022-09-11T16:28:09.266Z,65.44
2022-09-11T16:30:54.799Z,65.37
2022-09-11T16:33:47.917Z,65.21
2022-09-11T16:36:38.484Z,65.25
2022-09-11T16:39:24.034Z,65.25
2022-09-11T16:42:09.021Z,65.18
2022-09-11T16:44:54.389Z,65.21
2022-09-11T16:47:39.818Z,65.26
2022-09-11T16:50:25.270Z,65.66
2022-09-11T16:53:10.855Z,65.34
2022-09-11T16:55:56.180Z,65.42
2022-09-11T16:58:42.219Z,65.59
2022-09-11T17:01:28.286Z,65.52
2022-09-11T17:04:13.727Z,65.32
2022-09-11T17:06:58.995Z,65.09
2022-09-11T17:09:45.956Z,65.15
2022-09-11T17:12:31.404Z,65.20
2022-09-11T17:15:19.428Z,65.21
2022-09-11T17:18:05.068Z,65.18
2022-09-11T17:20:56.895Z,65.27
2022-09-11T17:23:43.003Z,65.24
2022-09-11T17:26:28.483Z,65.40
2022-09-11T17:29:13.787Z,65.32
2022-09-11T17:32:23.638Z,65.44
2022-09-11T17:35:05.797Z,65.49
2022-09-11T17:37:51.213Z,65.60
2022-09-11T17:40:37.187Z,65.64
2022-09-11T17:43:22.279Z,65.74
2022-09-11T17:46:13.071Z,65.66
2022-09-11T17:48:59.378Z,65.82
2022-09-11T17:51:44.967Z,66.09
2022-09-11T17:54:30.041Z,66.09
2022-09-11T17:57:16.141Z,66.12
2022-09-11T18:00:01.402Z,66.35
2022-09-11T18:02:49.557Z,66.37
2022-09-11T18:05:35.440Z,66.55
2022-09-11T18:08:21.129Z,67.07
2022-09-11T18:11:08.422Z,67.13
2022-09-11T18:13:54.870Z,67.13
2022-09-11T18:16:41.008Z,66.95
2022-09-11T18:19:28.237Z,66.94
2022-09-11T18:22:13.888Z,67.00
2022-09-11T18:25:00.108Z,66.93
2022-09-11T18:27:49.891Z,67.01
2022-09-11T18:30:39.339Z,67.03
2022-09-11T18:33:26.225Z,66.85
2022-09-11T18:36:14.264Z,66.94
2022-09-11T18:39:02.261Z,67.21
2022-09-11T18:41:49.669Z,67.14
2022-09-11T18:44:35.765Z,67.42
2022-09-11T18:47:22.134Z,67.37
2022-09-11T18:50:08.397Z,67.37
2022-09-11T18:52:53.673Z,67.42
2022-09-11T18:55:39.088Z,67.21
2022-09-11T18:58:24.817Z,67.06
2022-09-11T19:01:14.648Z,67.16
2022-09-11T19:04:05.402Z,67.18
2022-09-11T19:06:50.973Z,66.94
2022-09-11T19:09:36.358Z,67.12
2022-09-11T19:12:21.649Z,67.00
2022-09-11T19:15:11.287Z,67.00
2022-09-11T19:18:00.253Z,66.98
2022-09-11T19:20:45.675Z,67.07
2022-09-11T19:23:37.048Z,67.00
2022-09-11T19:26:25.605Z,66.96
2022-09-11T19:29:13.390Z,66.91
2022-09-11T19:32:01.258Z,66.98
2022-09-11T19:34:47.587Z,66.83
2022-09-11T19:37:34.995Z,66.93
2022-09-11T19:40:20.617Z,66.94
2022-09-11T19:43:07.097Z,67.05
2022-09-11T19:46:00.855Z,67.08
2022-09-11T19:48:48.485Z,66.88
2022-09-11T19:51:37.185Z,66.68
2022-09-11T19:54:23.044Z,66.49
2022-09-11T19:57:08.602Z,66.49
2022-09-11T19:59:54.243Z,66.71
2022-09-11T20:02:39.327Z,66.53
2022-09-11T20:05:24.607Z,66.55
2022-09-11T20:08:15.817Z,66.59
2022-09-11T20:11:07.397Z,66.61
2022-09-11T20:13:54.290Z,66.72
2022-09-11T20:16:39.883Z,66.90
2022-09-11T20:19:25.180Z,66.94
2022-09-11T20:22:10.854Z,66.73
2022-09-11T20:24:56.127Z,66.73
2022-09-11T20:27:41.139Z,66.63
2022-09-11T20:30:26.557Z,66.89
2022-09-11T20:33:12.853Z,66.74
2022-09-11T20:38:44.041Z,66.69
2022-09-11T20:41:30.640Z,66.69
2022-09-11T20:44:15.879Z,66.78
2022-09-11T20:47:01.225Z,66.59
2022-09-11T20:49:46.295Z,66.66
2022-09-11T20:52:33.266Z,66.51
2022-09-11T20:55:21.617Z,66.76
2022-09-11T20:58:06.862Z,66.67
2022-09-11T21:00:52.592Z,66.72
2022-09-11T21:03:38.016Z,66.61
2022-09-11T21:06:26.622Z,66.60
2022-09-11T21:09:12.114Z,66.68
2022-09-11T21:11:57.329Z,66.83
2022-09-11T21:14:43.250Z,66.79
2022-09-11T21:17:28.535Z,66.90
2022-09-11T21:20:13.803Z,66.75
2022-09-11T21:22:59.175Z,66.76
2022-09-11T21:25:44.390Z,66.76
2022-09-11T21:28:30.937Z,66.88
2022-09-11T21:31:16.459Z,66.82
2022-09-11T21:34:01.698Z,66.95
2022-09-11T21:36:46.977Z,66.88
2022-09-11T21:39:32.154Z,66.75
2022-09-11T21:42:17.501Z,66.76
2022-09-11T21:45:02.756Z,66.61
2022-09-11T21:47:47.935Z,66.66
2022-09-11T21:50:33.210Z,66.92
2022-09-11T21:53:18.921Z,66.79
2022-09-11T21:56:05.356Z,66.77
2022-09-11T21:58:51.483Z,66.72
2022-09-11T22:01:36.955Z,66.79
2022-09-11T22:04:22.327Z,66.81
2022-09-11T22:07:07.607Z,66.65
2022-09-11T22:09:53.236Z,66.76
2022-09-11T22:12:38.724Z,67.18
2022-09-11T22:15:24.242Z,66.92
2022-09-11T22:18:09.998Z,66.92
2022-09-11T22:21:00.323Z,66.92
2022-09-11T22:23:46.055Z,66.94
2022-09-11T22:26:32.530Z,67.05
2022-09-11T22:29:17.966Z,67.02
2022-09-11T22:32:04.733Z,67.05
2022-09-11T22:34:49.814Z,67.07
2022-09-11T22:37:34.914Z,67.05
2022-09-11T22:40:20.581Z,67.04
2022-09-11T22:43:06.122Z,67.00
2022-09-11T22:45:52.432Z,66.92
2022-09-11T22:48:37.939Z,67.06
2022-09-11T22:51:23.004Z,67.18
2022-09-11T22:54:08.368Z,67.01
2022-09-11T22:56:53.612Z,67.03
2022-09-11T22:59:39.093Z,67.08
2022-09-11T23:02:25.214Z,67.10
2022-09-11T23:05:29.021Z,67.09
2022-09-11T23:08:14.832Z,66.97
2022-09-11T23:11:02.814Z,67.09
2022-09-11T23:13:52.168Z,67.06
2022-09-11T23:16:37.794Z,67.14
2022-09-11T23:19:23.151Z,67.04
2022-09-11T23:22:08.318Z,66.98
2022-09-11T23:24:53.673Z,66.94
2022-09-11T23:27:38.818Z,67.03
2022-09-11T23:30:24.238Z,66.97
2022-09-11T23:33:10.059Z,67.00
2022-09-11T23:35:55.600Z,66.97
2022-09-11T23:38:44.069Z,66.97
2022-09-11T23:41:29.567Z,66.96
2022-09-11T23:44:14.888Z,66.99
2022-09-11T23:47:02.161Z,66.98
2022-09-11T23:49:48.130Z,66.97
2022-09-11T23:52:36.439Z,66.89
2022-09-11T23:55:22.042Z,67.24
2022-09-11T23:58:07.249Z,66.94
